Time;durP1;ratioP1;P1;durP2;ratioP2;P2;SDS_P1;SDS_P2;PMS_P1;PMS_P2;Temp;Humidity;BMP_temperature;BMP_pressure;BME280_temperature;BME280_humidity;BME280_pressure;Samples;Min_cycle;Max_cycle;Signal;HPM_P1;HPM_P2
2023/01/14 00:02:17;;;;;;;13.98;2.03;;;;;;;6.96;100.00;101060.06;5033246;28;20025;-74
2023/01/14 00:04:42;;;;;;;14.68;2.42;;;;;;;6.99;100.00;101067.16;5031681;28;20033;-74
2023/01/14 00:07:08;;;;;;;12.57;2.00;;;;;;;6.95;100.00;101074.00;5047059;28;20021;-74
2023/01/14 00:09:33;;;;;;;19.90;3.70;;;;;;;6.96;100.00;101056.56;5033597;28;20030;-75
2023/01/14 00:11:58;;;;;;;9.95;1.88;;;;;;;6.97;100.00;101046.13;5035420;28;20117;-74
2023/01/14 00:14:29;;;;;;;16.10;2.35;;;;;;;6.96;100.00;101057.47;5033942;28;20196;-74
2023/01/14 00:16:55;;;;;;;19.75;2.75;;;;;;;6.91;100.00;101054.66;5040592;28;20017;-75
2023/01/14 00:19:22;;;;;;;14.07;1.80;;;;;;;6.88;100.00;101061.53;5033595;28;20488;-75
2023/01/14 00:21:48;;;;;;;14.60;2.17;;;;;;;6.87;100.00;101060.63;5033127;28;20068;-75
2023/01/14 00:24:15;;;;;;;11.00;1.85;;;;;;;6.82;100.00;101062.19;5034385;28;20125;-75
2023/01/14 00:26:42;;;;;;;11.57;2.03;;;;;;;6.80;100.00;101063.88;5038359;28;20029;-74
2023/01/14 00:29:15;;;;;;;18.83;2.95;;;;;;;6.73;100.00;101057.53;5047920;28;20491;-73
2023/01/14 00:31:42;;;;;;;21.95;2.75;;;;;;;6.72;100.00;101055.75;5041249;28;20087;-74
2023/01/14 00:34:07;;;;;;;11.93;2.05;;;;;;;6.74;100.00;101051.47;5035927;28;20029;-75
2023/01/14 00:36:33;;;;;;;17.75;2.28;;;;;;;6.72;100.00;101045.28;5039393;28;20493;-75
2023/01/14 00:38:58;;;;;;;17.15;2.58;;;;;;;6.74;100.00;101053.19;5043684;28;20068;-73
2023/01/14 00:41:25;;;;;;;12.95;2.17;;;;;;;6.75;100.00;101053.25;5038547;28;20056;-75
2023/01/14 00:43:53;;;;;;;18.73;2.08;;;;;;;6.75;100.00;101058.50;5034645;28;20396;-74
2023/01/14 00:46:21;;;;;;;18.02;3.42;;;;;;;6.73;100.00;101057.53;5026529;28;20029;-74
2023/01/14 00:48:46;;;;;;;19.95;2.85;;;;;;;6.73;100.00;101051.44;5034126;28;20040;-74
2023/01/14 00:51:13;;;;;;;16.17;2.67;;;;;;;6.70;100.00;101056.53;5042046;28;20025;-74
2023/01/14 00:53:40;;;;;;;15.75;2.65;;;;;;;6.67;100.00;101048.59;5040093;28;20154;-75
2023/01/14 00:56:06;;;;;;;11.63;2.35;;;;;;;6.60;100.00;101050.09;5034172;28;20116;-74
2023/01/14 00:58:32;;;;;;;14.25;3.08;;;;;;;6.60;100.00;101039.63;5032107;28;20095;-75
2023/01/14 01:00:57;;;;;;;19.27;2.67;;;;;;;6.55;100.00;101042.09;5050017;28;20049;-75
2023/01/14 01:03:23;;;;;;;21.60;3.30;;;;;;;6.57;100.00;101039.53;5037522;28;20029;-75
2023/01/14 01:05:50;;;;;;;21.58;3.40;;;;;;;6.51;100.00;101027.13;5035023;28;20235;-73
2023/01/14 01:08:17;;;;;;;16.75;2.28;;;;;;;6.48;100.00;101024.38;5044412;28;20075;-74
2023/01/14 01:10:44;;;;;;;13.98;1.95;;;;;;;6.42;100.00;101029.41;5032636;28;20036;-74
2023/01/14 01:13:11;;;;;;;19.35;2.88;;;;;;;6.37;100.00;101031.84;5030684;28;20029;-74
2023/01/14 01:15:37;;;;;;;28.73;4.18;;;;;;;6.40;100.00;101031.97;5031444;28;20061;-75
2023/01/14 01:18:03;;;;;;;16.13;2.53;;;;;;;6.41;100.00;101028.50;5032510;28;20033;-75
2023/01/14 01:20:30;;;;;;;24.92;3.47;;;;;;;6.39;100.00;101021.47;5030493;28;20043;-75
2023/01/14 01:22:55;;;;;;;15.95;2.85;;;;;;;6.36;100.00;101035.31;5034578;28;20028;-73
2023/01/14 01:25:21;;;;;;;25.10;3.25;;;;;;;6.35;100.00;101037.88;5032937;28;20029;-74
2023/01/14 01:27:46;;;;;;;21.80;2.72;;;;;;;6.31;100.00;101041.16;5033567;28;20029;-74
2023/01/14 01:30:12;;;;;;;14.07;2.45;;;;;;;6.28;100.00;101033.22;5033127;28;20026;-74
2023/01/14 01:32:38;;;;;;;17.52;3.58;;;;;;;6.25;100.00;101036.59;5039509;28;20036;-74
2023/01/14 01:35:04;;;;;;;14.30;3.08;;;;;;;6.19;100.00;101028.56;5033260;28;20036;-74
2023/01/14 01:37:29;;;;;;;20.80;2.90;;;;;;;6.19;100.00;101036.41;5041822;28;20040;-75
2023/01/14 01:39:54;;;;;;;16.80;2.25;;;;;;;6.19;100.00;101041.63;5031301;28;20111;-75
2023/01/14 01:42:23;;;;;;;23.67;3.00;;;;;;;6.18;100.00;101037.22;5031778;28;20192;-73
2023/01/14 01:44:48;;;;;;;17.25;2.97;;;;;;;6.11;100.00;101027.38;5034328;28;20025;-73
2023/01/14 01:47:14;;;;;;;14.75;2.63;;;;;;;6.05;100.00;101026.31;5034799;28;20168;-74
2023/01/14 01:49:40;;;;;;;22.08;2.92;;;;;;;5.99;100.00;101013.00;5035751;28;20461;-74
2023/01/14 01:52:18;;;;;;;20.25;3.45;;;;;;;5.96;100.00;101012.00;5044236;28;20104;-74
2023/01/14 01:54:52;;;;;;;22.50;2.85;;;;;;;5.89;100.00;101013.47;5043475;28;20393;-74
2023/01/14 01:57:18;;;;;;;18.50;3.30;;;;;;;5.86;100.00;101000.28;5034887;28;20037;-74
2023/01/14 01:59:51;;;;;;;19.10;3.17;;;;;;;5.77;100.00;101005.16;5039233;28;20151;-74
2023/01/14 02:02:18;;;;;;;27.33;3.85;;;;;;;5.72;100.00;101003.28;5037119;28;20037;-74
2023/01/14 02:04:43;;;;;;;28.05;3.17;;;;;;;5.70;100.00;100988.38;5033903;28;20033;-73
2023/01/14 02:07:20;;;;;;;24.30;4.10;;;;;;;5.69;100.00;100981.38;5047708;28;20489;-74
2023/01/14 02:09:47;;;;;;;15.50;2.45;;;;;;;5.69;100.00;100970.91;5037300;28;20021;-74
2023/01/14 02:12:19;;;;;;;22.75;2.92;;;;;;;5.66;100.00;100970.81;5028145;28;20025;-73
2023/01/14 02:15:00;;;;;;;28.55;3.20;;;;;;;5.60;100.00;100955.78;5029598;28;20354;-74
2023/01/14 02:17:34;;;;;;;21.27;3.25;;;;;;;5.55;100.00;100952.13;5029910;28;20029;-73
2023/01/14 02:20:15;;;;;;;21.90;2.75;;;;;;;5.55;100.00;100946.91;5032470;28;20041;-74
2023/01/14 02:23:18;;;;;;;24.45;3.47;;;;;;;5.60;100.00;100944.47;5031019;28;20108;-74
2023/01/14 02:26:30;;;;;;;17.33;2.95;;;;;;;5.55;100.00;100942.56;5037044;28;20073;-74
2023/01/14 02:29:22;;;;;;;19.83;2.85;;;;;;;5.52;100.00;100946.75;5031264;28;20028;-74
2023/01/14 02:32:11;;;;;;;21.95;3.55;;;;;;;5.49;100.00;100941.44;5036513;28;20030;-74
2023/01/14 02:34:52;;;;;;;22.48;3.05;;;;;;;5.44;100.00;100936.06;5008848;28;20142;-74
2023/01/14 02:37:20;;;;;;;23.27;3.80;;;;;;;5.45;100.00;100945.63;5037554;28;20037;-74
2023/01/14 02:40:04;;;;;;;25.08;3.08;;;;;;;5.44;100.00;100942.97;5031316;28;20029;-74
2023/01/14 02:45:44;;;;;;;16.70;2.67;;;;;;;5.48;100.00;100929.22;5030345;28;20044;-74
2023/01/14 02:48:12;;;;;;;25.23;3.35;;;;;;;5.51;100.00;100937.19;5031319;28;20116;-74
2023/01/14 02:50:37;;;;;;;17.05;2.20;;;;;;;5.49;100.00;100933.59;5035759;28;20020;-75
2023/01/14 02:53:18;;;;;;;17.42;2.75;;;;;;;5.46;100.00;100926.53;5031811;28;20029;-76
2023/01/14 02:55:44;;;;;;;17.98;2.70;;;;;;;5.44;100.00;100922.09;5025963;28;20025;-74
2023/01/14 02:58:18;;;;;;;16.83;2.97;;;;;;;5.44;100.00;100916.88;5031779;28;20370;-75
2023/01/14 03:01:17;;;;;;;19.98;2.80;;;;;;;5.40;100.00;100921.97;5043953;28;20428;-73
2023/01/14 03:04:21;;;;;;;18.10;2.90;;;;;;;5.40;100.00;100911.53;5030546;28;20546;-74
2023/01/14 03:07:12;;;;;;;25.20;3.35;;;;;;;5.38;100.00;100905.34;5037269;28;20415;-75
2023/01/14 03:09:53;;;;;;;19.85;3.15;;;;;;;5.35;100.00;100902.63;5028378;28;20109;-74
2023/01/14 03:12:37;;;;;;;26.77;3.65;;;;;;;5.41;100.00;100901.97;5030424;28;20051;-74
2023/01/14 03:15:26;;;;;;;20.63;3.25;;;;;;;5.37;100.00;100897.47;5028286;28;20061;-74
2023/01/14 03:17:59;;;;;;;29.60;4.05;;;;;;;5.34;100.00;100897.38;5023847;28;20112;-73
2023/01/14 03:20:31;;;;;;;18.02;2.95;;;;;;;5.33;100.00;100883.44;5029526;28;20026;-74
2023/01/14 03:23:02;;;;;;;15.55;2.72;;;;;;;5.32;100.00;100878.16;5030494;28;20100;-74
2023/01/14 03:25:31;;;;;;;23.55;3.33;;;;;;;5.28;100.00;100878.88;5041864;28;20036;-74
2023/01/14 03:27:59;;;;;;;23.63;4.20;;;;;;;5.26;100.00;100870.97;5030645;28;20022;-75
2023/01/14 03:30:29;;;;;;;21.73;3.95;;;;;;;5.24;100.00;100867.44;5031110;28;20039;-74
2023/01/14 03:33:12;;;;;;;27.52;3.67;;;;;;;5.21;100.00;100864.72;5033818;28;20473;-74
2023/01/14 03:35:41;;;;;;;11.98;3.17;;;;;;;5.20;100.00;100855.97;5033962;28;20041;-75
2023/01/14 03:38:12;;;;;;;26.85;2.97;;;;;;;5.28;100.00;100847.56;5042712;28;20109;-74
2023/01/14 03:40:41;;;;;;;25.52;3.47;;;;;;;5.24;100.00;100846.56;5041232;28;20025;-74
2023/01/14 03:43:32;;;;;;;45.10;4.75;;;;;;;5.22;100.00;100843.00;5030142;28;20557;-74
2023/01/14 03:45:58;;;;;;;27.38;3.75;;;;;;;5.24;100.00;100834.41;5019660;28;20277;-75
2023/01/14 03:48:25;;;;;;;37.60;4.38;;;;;;;5.25;100.00;100827.47;5030977;28;20052;-74
2023/01/14 03:51:12;;;;;;;26.55;2.75;;;;;;;5.26;100.00;100816.19;5031850;28;20020;-74
2023/01/14 03:54:15;;;;;;;18.83;3.53;;;;;;;5.24;100.00;100804.81;5023590;28;20037;-74
2023/01/14 03:56:51;;;;;;;30.48;4.05;;;;;;;5.23;100.00;100808.25;5027009;28;20056;-74
2023/01/14 03:59:23;;;;;;;28.45;3.63;;;;;;;5.22;100.00;100788.22;5030763;28;20128;-74
2023/01/14 04:01:52;;;;;;;18.55;3.85;;;;;;;5.23;100.00;100790.00;5028945;28;20042;-74
2023/01/14 04:04:19;;;;;;;22.80;4.35;;;;;;;5.23;100.00;100775.22;5046187;28;20040;-74
2023/01/14 04:06:44;;;;;;;21.75;3.13;;;;;;;5.23;100.00;100777.81;5035639;28;20017;-75
2023/01/14 04:09:10;;;;;;;32.13;5.82;;;;;;;5.24;100.00;100779.59;5043127;28;20036;-75
2023/01/14 04:11:36;;;;;;;28.73;4.18;;;;;;;5.28;100.00;100774.53;5030817;28;20061;-74
2023/01/14 04:16:46;;;;;;;36.17;4.95;;;;;;;5.29;100.00;100758.94;5032011;28;20719;-73
2023/01/14 04:19:11;;;;;;;32.88;4.53;;;;;;;5.25;100.00;100757.03;5030148;28;20021;-74
2023/01/14 04:21:36;;;;;;;29.70;4.13;;;;;;;5.26;100.00;100750.97;5033799;28;20052;-74
2023/01/14 04:24:02;;;;;;;24.60;4.20;;;;;;;5.28;100.00;100754.53;5034638;28;20393;-73
2023/01/14 04:26:28;;;;;;;34.50;4.13;;;;;;;5.27;100.00;100737.09;5044057;28;20029;-75
2023/01/14 04:28:54;;;;;;;30.95;4.60;;;;;;;5.30;100.00;100736.31;5037676;28;20029;-73
2023/01/14 04:31:19;;;;;;;30.13;4.70;;;;;;;5.25;100.00;100730.94;5034376;28;20136;-74
2023/01/14 04:33:45;;;;;;;31.17;3.97;;;;;;;5.26;100.00;100714.44;5034223;28;20116;-74
2023/01/14 04:36:10;;;;;;;32.95;4.57;;;;;;;5.31;100.00;100718.09;5046637;28;20785;-75
2023/01/14 04:38:36;;;;;;;22.70;3.80;;;;;;;5.29;100.00;100714.56;5033661;28;20542;-74
2023/01/14 04:41:01;;;;;;;36.97;4.50;;;;;;;5.34;100.00;100707.78;5028171;28;20693;-74
2023/01/14 04:43:26;;;;;;;22.95;4.30;;;;;;;5.35;100.00;100714.78;5036638;28;20021;-74
2023/01/14 04:45:54;;;;;;;29.83;4.13;;;;;;;5.36;100.00;100708.72;5037581;28;20483;-74
2023/01/14 04:48:21;;;;;;;26.25;4.85;;;;;;;5.33;100.00;100700.81;5041048;28;20072;-74
2023/01/14 04:50:50;;;;;;;28.05;4.35;;;;;;;5.38;100.00;100703.56;5033884;28;20470;-74
2023/01/14 04:53:23;;;;;;;21.90;4.35;;;;;;;5.37;100.00;100697.47;5048401;28;20021;-74
2023/01/14 04:55:55;;;;;;;13.25;2.72;;;;;;;5.37;100.00;100710.50;5034337;28;20095;-73
2023/01/14 04:58:20;;;;;;;25.17;3.58;;;;;;;5.39;100.00;100693.19;5032991;28;20029;-74
2023/01/14 05:00:46;;;;;;;31.88;4.32;;;;;;;5.40;100.00;100691.47;5032737;28;20054;-75
2023/01/14 05:03:13;;;;;;;23.75;3.47;;;;;;;5.45;100.00;100686.41;5036707;28;20026;-74
2023/01/14 05:05:39;;;;;;;27.08;3.72;;;;;;;5.40;100.00;100684.53;5045421;28;20052;-74
2023/01/14 05:08:07;;;;;;;24.35;3.55;;;;;;;5.42;100.00;100674.13;5064422;28;20061;-75
2023/01/14 05:10:32;;;;;;;21.23;3.15;;;;;;;5.47;100.00;100669.97;5031314;28;20072;-75
2023/01/14 05:12:58;;;;;;;25.33;3.85;;;;;;;5.52;100.00;100664.88;5038333;28;20053;-75
2023/01/14 05:15:34;;;;;;;23.88;3.47;;;;;;;5.53;100.00;100656.22;5036835;28;20448;-75
2023/01/14 05:18:00;;;;;;;27.42;3.83;;;;;;;5.53;100.00;100653.63;5032699;28;20026;-75
2023/01/14 05:20:26;;;;;;;24.55;3.40;;;;;;;5.57;100.00;100645.06;5032730;28;20040;-75
2023/01/14 05:22:57;;;;;;;22.30;3.38;;;;;;;5.58;100.00;100645.09;5032537;28;20333;-73
2023/01/14 05:25:23;;;;;;;18.40;3.03;;;;;;;5.65;100.00;100630.53;5033873;28;20044;-74
2023/01/14 05:27:48;;;;;;;24.55;3.45;;;;;;;5.71;100.00;100633.38;5032181;28;20543;-74
2023/01/14 05:30:14;;;;;;;19.45;2.78;;;;;;;5.70;100.00;100631.59;5032998;28;20508;-73
2023/01/14 05:32:39;;;;;;;21.92;3.20;;;;;;;5.68;100.00;100630.66;5033673;28;20029;-74
2023/01/14 05:35:05;;;;;;;30.95;4.90;;;;;;;5.72;100.00;100627.31;5031596;28;20030;-72
2023/01/14 05:37:32;;;;;;;27.38;3.35;;;;;;;5.71;100.00;100612.47;5031728;28;20838;-74
2023/01/14 05:39:58;;;;;;;29.02;3.75;;;;;;;5.70;100.00;100617.66;5031647;28;20059;-74
2023/01/14 05:47:53;;;;;;;24.55;3.45;;;;;;;5.63;100.00;100593.06;5031987;28;19998;-74
2023/01/14 05:50:18;;;;;;;31.80;3.08;;;;;;;5.58;100.00;100592.03;5034563;28;20025;-73
2023/01/14 05:52:43;;;;;;;30.50;3.80;;;;;;;5.57;100.00;100575.50;5039145;28;20025;-74
2023/01/14 05:55:09;;;;;;;24.85;3.50;;;;;;;5.58;100.00;100576.38;5031439;28;20087;-74
2023/01/14 05:57:35;;;;;;;18.35;3.30;;;;;;;5.53;100.00;100564.88;5031330;28;20492;-74
2023/01/14 06:00:00;;;;;;;24.58;3.00;;;;;;;5.51;100.00;100561.34;5031988;28;20075;-74
2023/01/14 06:07:55;;;;;;;20.33;3.35;;;;;;;5.45;100.00;100538.53;5031601;28;20268;-74
2023/01/14 06:10:24;;;;;;;26.73;3.47;;;;;;;5.39;100.00;100523.56;5032265;28;20112;-73
2023/01/14 06:12:58;;;;;;;19.42;2.90;;;;;;;5.34;100.00;100522.53;5034144;28;20025;-74
2023/01/14 06:15:29;;;;;;;21.27;3.03;;;;;;;5.38;100.00;100523.53;5035574;28;20060;-74
2023/01/14 06:18:08;;;;;;;22.77;2.70;;;;;;;5.37;100.00;100511.31;5035418;28;20036;-74
2023/01/14 06:20:35;;;;;;;21.15;3.88;;;;;;;5.33;100.00;100502.53;5031444;28;20052;-75
2023/01/14 06:23:00;;;;;;;19.58;2.40;;;;;;;5.32;100.00;100485.09;5030866;28;20052;-75
2023/01/14 06:25:28;;;;;;;23.92;4.25;;;;;;;5.26;100.00;100474.44;5031232;28;20107;-75
2023/01/14 06:27:53;;;;;;;20.40;2.65;;;;;;;5.27;100.00;100465.78;5031902;28;20442;-74
2023/01/14 06:30:19;;;;;;;29.02;4.10;;;;;;;5.23;100.00;100469.13;5034667;28;20057;-74
2023/01/14 06:32:45;;;;;;;32.00;4.82;;;;;;;5.22;100.00;100454.31;5031233;28;20124;-72
2023/01/14 06:35:10;;;;;;;26.55;3.67;;;;;;;5.20;100.00;100442.97;5032166;28;20022;-74
2023/01/14 06:37:35;;;;;;;24.20;4.13;;;;;;;5.18;100.00;100442.00;5029710;28;20044;-74
2023/01/14 06:40:01;;;;;;;28.95;4.15;;;;;;;5.18;100.00;100435.09;5031812;28;20029;-74
2023/01/14 06:42:26;;;;;;;19.00;3.35;;;;;;;5.19;100.00;100423.78;5033547;28;20045;-75
2023/01/14 06:44:51;;;;;;;34.63;4.15;;;;;;;5.17;100.00;100412.44;5039655;28;20536;-74
2023/01/14 06:47:17;;;;;;;27.48;3.85;;;;;;;5.14;100.00;100411.44;5036866;28;20026;-74
2023/01/14 06:49:42;;;;;;;20.88;3.05;;;;;;;5.13;100.00;100402.75;5030682;28;20029;-74
2023/01/14 06:52:07;;;;;;;22.38;3.35;;;;;;;5.11;100.00;100393.09;5031583;28;20025;-75
2023/01/14 06:54:33;;;;;;;19.42;2.72;;;;;;;5.10;100.00;100383.50;5029953;28;20102;-74
2023/01/14 06:56:58;;;;;;;29.85;3.30;;;;;;;5.04;100.00;100377.25;5035952;28;20025;-74
2023/01/14 06:59:23;;;;;;;17.40;2.70;;;;;;;5.04;100.00;100379.84;5032408;28;20026;-73
2023/01/14 07:01:48;;;;;;;27.70;3.45;;;;;;;5.03;100.00;100358.97;5030236;28;20048;-74
2023/01/14 07:04:14;;;;;;;22.45;4.05;;;;;;;5.01;100.00;100353.69;5029649;28;20465;-74
2023/01/14 07:06:39;;;;;;;17.83;3.72;;;;;;;5.00;100.00;100345.84;5063845;28;20111;-74
2023/01/14 07:09:04;;;;;;;23.15;2.85;;;;;;;4.99;100.00;100344.97;5031094;28;20040;-74
2023/01/14 07:11:30;;;;;;;20.00;3.42;;;;;;;4.99;100.00;100344.06;5035132;28;20111;-74
2023/01/14 07:13:55;;;;;;;21.20;3.67;;;;;;;4.99;100.00;100326.72;5028939;28;20446;-73
2023/01/14 07:16:20;;;;;;;28.42;4.13;;;;;;;4.97;100.00;100323.16;5036234;28;20025;-74
2023/01/14 07:18:46;;;;;;;28.52;4.30;;;;;;;4.96;100.00;100316.16;5032588;28;20040;-74
2023/01/14 07:21:11;;;;;;;23.83;4.88;;;;;;;4.96;100.00;100305.72;5036037;28;20029;-74
2023/01/14 07:23:36;;;;;;;32.25;5.38;;;;;;;4.98;100.00;100279.69;5027952;28;20056;-74
2023/01/14 07:26:02;;;;;;;20.17;4.60;;;;;;;4.96;100.00;100279.66;5032729;28;20097;-75
2023/01/14 07:28:28;;;;;;;36.65;5.18;;;;;;;4.99;100.00;100265.84;5032319;28;20032;-75
2023/01/14 07:30:53;;;;;;;35.03;5.65;;;;;;;4.98;100.00;100251.03;5040681;28;21261;-73
2023/01/14 07:33:21;;;;;;;29.25;5.88;;;;;;;4.96;100.00;100255.31;5027890;28;20529;-75
2023/01/14 07:35:51;;;;;;;25.65;5.38;;;;;;;4.98;100.00;100246.72;5024885;28;20044;-75
2023/01/14 07:38:16;;;;;;;17.50;5.07;;;;;;;4.98;100.00;100231.06;5029276;28;20119;-75
2023/01/14 07:40:41;;;;;;;20.75;5.45;;;;;;;5.01;100.00;100222.44;5028994;28;20458;-74
2023/01/14 07:43:07;;;;;;;27.73;5.28;;;;;;;5.02;100.00;100216.41;5031976;28;20494;-74
2023/01/14 07:45:33;;;;;;;25.63;5.60;;;;;;;5.02;100.00;100196.41;5026417;28;20037;-74
2023/01/14 07:47:58;;;;;;;15.93;5.78;;;;;;;5.04;100.00;100186.03;5039858;28;20067;-74
2023/01/14 07:50:23;;;;;;;19.45;6.53;;;;;;;5.04;100.00;100186.91;5034656;28;20112;-74
2023/01/14 07:52:57;;;;;;;23.00;5.25;;;;;;;5.09;100.00;100181.84;5032087;28;20033;-74
2023/01/14 07:55:24;;;;;;;21.42;6.30;;;;;;;5.09;100.00;100173.09;5034559;28;20097;-74
2023/01/14 07:57:49;;;;;;;14.63;6.47;;;;;;;5.10;100.00;100154.91;5041463;28;20022;-74
2023/01/14 08:00:16;;;;;;;18.20;6.07;;;;;;;5.16;100.00;100159.41;5031879;28;20059;-75
2023/01/14 08:02:41;;;;;;;16.88;5.85;;;;;;;5.15;100.00;100157.63;5032497;28;20018;-73
2023/01/14 08:05:07;;;;;;;23.35;6.75;;;;;;;5.16;100.00;100143.75;5033877;28;20036;-74
2023/01/14 08:07:32;;;;;;;25.27;7.50;;;;;;;5.20;100.00;100129.97;5040071;28;20036;-75
2023/01/14 08:09:57;;;;;;;25.35;7.00;;;;;;;5.23;100.00;100130.03;5034430;28;20029;-75
2023/01/14 08:12:23;;;;;;;18.55;7.15;;;;;;;5.25;100.00;100115.31;5036238;28;20037;-74
2023/01/14 08:14:48;;;;;;;19.00;6.60;;;;;;;5.28;100.00;100120.63;5045827;28;20093;-74
2023/01/14 08:17:15;;;;;;;17.13;5.78;;;;;;;5.31;100.00;100115.47;5027700;28;20029;-74
2023/01/14 08:19:40;;;;;;;18.33;7.07;;;;;;;5.32;100.00;100083.34;5041973;28;20033;-75
2023/01/14 08:22:06;;;;;;;17.70;7.28;;;;;;;5.36;100.00;100090.38;5040634;28;20022;-74
2023/01/14 08:24:31;;;;;;;23.67;6.43;;;;;;;5.40;100.00;100086.16;5034933;28;20075;-75
2023/01/14 08:26:56;;;;;;;17.25;8.02;;;;;;;5.44;100.00;100087.97;5033628;28;20064;-74
2023/01/14 08:29:22;;;;;;;14.95;6.70;;;;;;;5.47;100.00;100075.00;5033311;28;20153;-76
2023/01/14 08:31:51;;;;;;;17.75;7.95;;;;;;;5.53;100.00;100056.88;5027993;28;20061;-75
2023/01/14 08:34:17;;;;;;;16.33;7.80;;;;;;;5.61;100.00;100053.59;5035653;28;20017;-74
2023/01/14 08:36:43;;;;;;;16.13;7.50;;;;;;;5.71;100.00;100056.44;5035102;28;20036;-74
2023/01/14 08:39:09;;;;;;;18.75;6.65;;;;;;;5.77;100.00;100050.50;5034558;28;20108;-75
2023/01/14 08:41:36;;;;;;;16.05;6.30;;;;;;;5.79;100.00;100029.63;5041325;28;20163;-77
2023/01/14 08:44:01;;;;;;;12.63;6.13;;;;;;;5.84;100.00;100018.44;5030802;28;20021;-75
2023/01/14 08:46:27;;;;;;;12.52;6.40;;;;;;;5.95;100.00;100013.44;5041059;28;20029;-75
2023/01/14 08:48:52;;;;;;;12.68;5.07;;;;;;;6.04;100.00;100003.25;5036433;28;20106;-75
2023/01/14 08:51:18;;;;;;;18.38;6.28;;;;;;;6.05;100.00;100002.41;5031653;28;20125;-75
2023/01/14 08:53:43;;;;;;;10.05;4.55;;;;;;;6.11;100.00;99979.88;5037973;28;20031;-75
2023/01/14 08:56:14;;;;;;;19.35;5.35;;;;;;;6.18;100.00;99968.69;5034960;28;20538;-76
2023/01/14 08:58:39;;;;;;;16.17;5.22;;;;;;;6.20;100.00;99959.16;5033521;28;20512;-74
2023/01/14 09:01:07;;;;;;;14.30;4.95;;;;;;;6.22;100.00;99954.84;5036294;28;20064;-75
2023/01/14 09:03:47;;;;;;;13.95;4.40;;;;;;;6.25;100.00;99954.91;5088243;27;20424;-75
2023/01/14 09:06:16;;;;;;;9.93;3.35;;;;;;;6.33;100.00;99952.44;5070524;28;20032;-75
2023/01/14 09:17:10;;;;;;;10.80;3.10;;;;;;;6.41;100.00;99928.22;5069508;28;20040;-76
2023/01/14 09:19:49;;;;;;;8.60;2.90;;;;;;;6.41;100.00;99915.16;5067477;28;20055;-77
2023/01/14 09:22:19;;;;;;;15.32;3.25;;;;;;;6.40;100.00;99913.41;5070740;28;20403;-75
2023/01/14 09:24:44;;;;;;;8.68;3.30;;;;;;;6.44;100.00;99908.22;5084296;28;20466;-75
2023/01/14 09:27:10;;;;;;;12.77;2.78;;;;;;;6.47;100.00;99914.41;5068354;28;20024;-76
2023/01/14 09:29:35;;;;;;;13.63;2.45;;;;;;;6.49;100.00;99870.00;5069081;28;20035;-75
2023/01/14 09:32:01;;;;;;;11.10;3.30;;;;;;;6.47;100.00;99892.59;5063793;28;20025;-74
2023/01/14 09:34:26;;;;;;;10.90;2.67;;;;;;;6.53;100.00;99879.66;5068282;28;20399;-74
2023/01/14 09:36:54;;;;;;;12.20;3.00;;;;;;;6.53;100.00;99871.81;5067347;28;20083;-74
2023/01/14 09:39:20;;;;;;;6.32;3.33;;;;;;;6.55;100.00;99857.00;5067554;28;20399;-74
2023/01/14 09:41:52;;;;;;;11.35;2.22;;;;;;;6.57;100.00;99839.63;5062215;28;20028;-74
2023/01/14 09:44:18;;;;;;;6.07;2.35;;;;;;;6.57;100.00;99844.88;5066542;28;20056;-74
2023/01/14 09:46:43;;;;;;;6.45;2.05;;;;;;;6.61;100.00;99837.97;5064533;28;20075;-75
2023/01/14 09:49:14;;;;;;;6.15;2.33;;;;;;;6.62;100.00;99827.53;5065643;28;20516;-76
2023/01/14 09:52:04;;;;;;;9.98;2.00;;;;;;;6.65;100.00;99811.88;5062843;28;21099;-75
2023/01/14 09:54:44;;;;;;;8.95;2.55;;;;;;;6.64;100.00;99785.72;5071569;28;20037;-75
2023/01/14 09:57:28;;;;;;;9.57;2.78;;;;;;;6.68;100.00;99809.31;5065175;28;20412;-76
2023/01/14 10:00:19;;;;;;;6.60;2.45;;;;;;;6.69;100.00;99784.06;5064547;28;20487;-75
2023/01/14 10:03:23;;;;;;;13.10;2.30;;;;;;;6.75;100.00;99768.47;5063944;28;20053;-76
2023/01/14 10:06:10;;;;;;;7.63;2.35;;;;;;;6.79;100.00;99765.03;5068997;28;20087;-74
2023/01/14 10:08:40;;;;;;;10.30;2.50;;;;;;;6.79;100.00;99743.25;5074043;28;20036;-76
2023/01/14 10:11:07;;;;;;;10.18;2.10;;;;;;;6.85;100.00;99727.63;5069615;28;20027;-75
2023/01/14 10:13:39;;;;;;;12.75;2.55;;;;;;;6.86;100.00;99737.22;5068527;28;20108;-74
2023/01/14 10:16:11;;;;;;;9.57;2.45;;;;;;;6.88;100.00;99728.56;5053922;28;20090;-75
2023/01/14 10:18:46;;;;;;;8.25;2.33;;;;;;;6.92;100.00;99719.03;5050767;28;20063;-75
2023/01/14 10:21:21;;;;;;;7.93;2.20;;;;;;;6.97;100.00;99706.00;5048622;28;20051;-75
2023/01/14 10:23:47;;;;;;;11.63;1.92;;;;;;;7.02;100.00;99706.94;5045029;28;20033;-75
2023/01/14 10:26:15;;;;;;;13.05;2.58;;;;;;;7.08;100.00;99692.19;5053103;28;20021;-77
2023/01/14 10:28:42;;;;;;;5.90;1.90;;;;;;;7.09;100.00;99680.88;5047558;28;20056;-75
2023/01/14 10:31:16;;;;;;;9.52;1.60;;;;;;;7.11;100.00;99673.06;5052585;28;20031;-75
2023/01/14 10:33:41;;;;;;;8.70;2.72;;;;;;;7.12;100.00;99663.44;5051799;28;20031;-76
2023/01/14 10:36:14;;;;;;;5.80;2.42;;;;;;;7.17;100.00;99657.41;5051205;28;20364;-76
2023/01/14 10:38:42;;;;;;;13.05;1.77;;;;;;;7.22;100.00;99662.72;5052632;28;20546;-76
2023/01/14 10:41:10;;;;;;;5.00;1.77;;;;;;;7.27;100.00;99653.19;5052605;28;20028;-77
2023/01/14 10:43:39;;;;;;;10.10;1.90;;;;;;;7.26;100.00;99636.56;5054655;28;20086;-74
2023/01/14 10:46:05;;;;;;;8.20;1.40;;;;;;;7.30;100.00;99613.94;5052852;28;20032;-76
2023/01/14 10:49:05;;;;;;;3.70;1.23;;;;;;;7.33;100.00;99621.81;5053605;28;20457;-76
2023/01/14 10:51:36;;;;;;;9.35;1.55;;;;;;;7.33;100.00;99605.25;5019847;28;20119;-75
2023/01/14 10:54:12;;;;;;;5.25;1.77;;;;;;;7.41;100.00;99588.75;5052746;28;20047;-76
2023/01/14 10:56:52;;;;;;;5.63;1.63;;;;;;;7.45;100.00;99607.09;5042471;28;20091;-75
2023/01/14 10:59:30;;;;;;;9.13;1.63;;;;;;;7.48;100.00;99583.59;5049747;28;20104;-75
2023/01/14 11:01:55;;;;;;;7.05;1.60;;;;;;;7.50;100.00;99579.22;5051825;28;20055;-74
2023/01/14 11:04:34;;;;;;;2.65;1.58;;;;;;;7.54;100.00;99599.31;5060745;28;20111;-74
2023/01/14 11:07:08;;;;;;;7.78;1.73;;;;;;;7.57;100.00;99567.97;5052289;28;20029;-74
2023/01/14 11:09:35;;;;;;;9.35;1.85;;;;;;;7.64;100.00;99538.34;5053301;28;20033;-73
2023/01/14 11:12:03;;;;;;;7.13;2.00;;;;;;;7.68;100.00;99547.97;5052015;28;20373;-73
2023/01/14 11:14:31;;;;;;;7.13;2.50;;;;;;;7.70;100.00;99547.97;5053857;28;20035;-72
2023/01/14 11:16:58;;;;;;;7.28;2.03;;;;;;;7.71;100.00;99542.75;5050939;28;20048;-74
2023/01/14 11:19:24;;;;;;;3.40;1.70;;;;;;;7.71;100.00;99534.88;5053609;28;20481;-74
2023/01/14 11:21:56;;;;;;;5.72;2.00;;;;;;;7.68;100.00;99534.88;5066846;28;20037;-74
2023/01/14 11:24:29;;;;;;;5.53;2.45;;;;;;;7.68;100.00;99536.63;5050862;28;20029;-73
2023/01/14 11:27:12;;;;;;;4.20;2.50;;;;;;;7.70;100.00;99500.84;5051790;28;20032;-73
2023/01/14 11:29:44;;;;;;;2.72;2.45;;;;;;;7.73;100.00;99499.13;5053781;28;20028;-74
2023/01/14 11:32:15;;;;;;;6.00;2.50;;;;;;;7.75;100.00;99497.38;5061320;28;20104;-74
2023/01/14 11:34:51;;;;;;;3.70;2.00;;;;;;;7.76;100.00;99486.03;5071135;28;20060;-74
2023/01/14 11:37:20;;;;;;;6.60;2.30;;;;;;;7.79;100.00;99484.34;5055677;28;20096;-75
2023/01/14 11:39:49;;;;;;;3.45;2.10;;;;;;;7.85;100.00;99460.78;5057246;28;20036;-76
2023/01/14 11:42:25;;;;;;;3.05;2.08;;;;;;;7.88;100.00;99473.88;5073399;28;20016;-76
2023/01/14 11:44:59;;;;;;;5.95;1.80;;;;;;;7.90;100.00;99459.06;5072157;28;20032;-76
2023/01/14 11:47:26;;;;;;;6.72;2.80;;;;;;;7.92;100.00;99460.81;5055727;28;20087;-74
2023/01/14 11:50:18;;;;;;;6.57;1.88;;;;;;;7.94;100.00;99448.59;5053138;28;20025;-74
2023/01/14 11:53:02;;;;;;;6.30;2.60;;;;;;;7.99;100.00;99456.50;5050294;28;20020;-75
2023/01/14 11:55:34;;;;;;;5.47;2.13;;;;;;;7.99;100.00;99456.50;5040531;28;20377;-74
2023/01/14 11:58:09;;;;;;;1.70;1.60;;;;;;;8.01;100.00;99432.91;5050978;28;20099;-74
2023/01/14 12:00:37;;;;;;;11.63;2.40;;;;;;;8.02;100.00;99456.50;5051924;28;20082;-75